sensor_id;sensor_type;location;lat;lon;timestamp;temperature;humidity
71254;HTU21D;59019;47.638;18.966;2023-02-28T00:01:24;-1.27;84.09
71254;HTU21D;59019;47.638;18.966;2023-02-28T00:03:50;-1.28;84.20
71254;HTU21D;59019;47.638;18.966;2023-02-28T00:06:16;-1.23;84.32
71254;HTU21D;59019;47.638;18.966;2023-02-28T00:08:42;-1.26;85.46
71254;HTU21D;59019;47.638;18.966;2023-02-28T00:11:11;-1.15;86.86
71254;HTU21D;59019;47.638;18.966;2023-02-28T00:13:39;-1.15;87.97
71254;HTU21D;59019;47.638;18.966;2023-02-28T00:16:08;-1.15;89.43
71254;HTU21D;59019;47.638;18.966;2023-02-28T00:18:34;-1.10;90.37
71254;HTU21D;59019;47.638;18.966;2023-02-28T00:21:00;-1.04;91.00
71254;HTU21D;59019;47.638;18.966;2023-02-28T00:23:26;-1.02;90.38
71254;HTU21D;59019;47.638;18.966;2023-02-28T00:25:53;-1.23;87.52
71254;HTU21D;59019;47.638;18.966;2023-02-28T00:28:19;-1.34;85.74
71254;HTU21D;59019;47.638;18.966;2023-02-28T00:30:45;-1.40;85.28
71254;HTU21D;59019;47.638;18.966;2023-02-28T00:33:11;-1.40;84.96
71254;HTU21D;59019;47.638;18.966;2023-02-28T00:35:37;-1.41;84.86
71254;HTU21D;59019;47.638;18.966;2023-02-28T00:38:03;-1.49;84.95
71254;HTU21D;59019;47.638;18.966;2023-02-28T00:40:29;-1.47;84.77
71254;HTU21D;59019;47.638;18.966;2023-02-28T00:42:54;-1.50;84.59
71254;HTU21D;59019;47.638;18.966;2023-02-28T00:45:20;-1.53;84.87
71254;HTU21D;59019;47.638;18.966;2023-02-28T00:47:45;-1.52;85.00
71254;HTU21D;59019;47.638;18.966;2023-02-28T00:50:18;-1.50;84.81
71254;HTU21D;59019;47.638;18.966;2023-02-28T00:52:44;-1.47;84.68
71254;HTU21D;59019;47.638;18.966;2023-02-28T00:55:10;-1.40;84.97
71254;HTU21D;59019;47.638;18.966;2023-02-28T00:57:36;-1.36;84.96
71254;HTU21D;59019;47.638;18.966;2023-02-28T01:00:02;-1.34;84.84
71254;HTU21D;59019;47.638;18.966;2023-02-28T01:02:28;-1.34;84.02
71254;HTU21D;59019;47.638;18.966;2023-02-28T01:04:54;-1.27;84.11
71254;HTU21D;59019;47.638;18.966;2023-02-28T01:07:19;-1.25;84.69
71254;HTU21D;59019;47.638;18.966;2023-02-28T01:09:45;-1.19;84.96
71254;HTU21D;59019;47.638;18.966;2023-02-28T01:12:10;-1.10;85.91
71254;HTU21D;59019;47.638;18.966;2023-02-28T01:14:36;-1.03;87.99
71254;HTU21D;59019;47.638;18.966;2023-02-28T01:17:02;-0.88;89.41
71254;HTU21D;59019;47.638;18.966;2023-02-28T01:19:28;-0.81;90.44
71254;HTU21D;59019;47.638;18.966;2023-02-28T01:21:53;-0.74;90.95
71254;HTU21D;59019;47.638;18.966;2023-02-28T01:24:19;-0.69;90.69
71254;HTU21D;59019;47.638;18.966;2023-02-28T01:26:44;-0.62;90.03
71254;HTU21D;59019;47.638;18.966;2023-02-28T01:29:10;-0.56;88.41
71254;HTU21D;59019;47.638;18.966;2023-02-28T01:31:36;-0.57;86.64
71254;HTU21D;59019;47.638;18.966;2023-02-28T01:34:02;-0.52;85.90
71254;HTU21D;59019;47.638;18.966;2023-02-28T01:36:28;-0.59;85.26
71254;HTU21D;59019;47.638;18.966;2023-02-28T01:38:53;-0.58;84.97
71254;HTU21D;59019;47.638;18.966;2023-02-28T01:41:25;-0.51;85.28
71254;HTU21D;59019;47.638;18.966;2023-02-28T01:44:04;-0.51;85.12
71254;HTU21D;59019;47.638;18.966;2023-02-28T01:46:34;-0.45;85.00
71254;HTU21D;59019;47.638;18.966;2023-02-28T01:49:15;-0.43;85.09
71254;HTU21D;59019;47.638;18.966;2023-02-28T01:51:54;-0.44;84.67
71254;HTU21D;59019;47.638;18.966;2023-02-28T01:54:27;-0.52;84.07
71254;HTU21D;59019;47.638;18.966;2023-02-28T01:56:58;-0.54;84.10
71254;HTU21D;59019;47.638;18.966;2023-02-28T01:59:42;-0.51;83.99
71254;HTU21D;59019;47.638;18.966;2023-02-28T02:02:12;-0.54;84.12
71254;HTU21D;59019;47.638;18.966;2023-02-28T02:05:19;-0.47;84.37
71254;HTU21D;59019;47.638;18.966;2023-02-28T02:07:42;-0.44;84.09
71254;HTU21D;59019;47.638;18.966;2023-02-28T02:10:14;-0.43;84.00
71254;HTU21D;59019;47.638;18.966;2023-02-28T02:13:00;-0.49;83.72
71254;HTU21D;59019;47.638;18.966;2023-02-28T02:15:32;-0.46;83.28
71254;HTU21D;59019;47.638;18.966;2023-02-28T02:18:08;-0.51;83.33
71254;HTU21D;59019;47.638;18.966;2023-02-28T02:39:34;-0.30;87.29
71254;HTU21D;59019;47.638;18.966;2023-02-28T02:42:05;-0.44;85.19
71254;HTU21D;59019;47.638;18.966;2023-02-28T02:44:45;-0.42;84.42
71254;HTU21D;59019;47.638;18.966;2023-02-28T02:47:15;-0.35;83.74
71254;HTU21D;59019;47.638;18.966;2023-02-28T02:49:47;-0.30;83.43
71254;HTU21D;59019;47.638;18.966;2023-02-28T02:52:15;-0.24;83.93
71254;HTU21D;59019;47.638;18.966;2023-02-28T02:54:45;-0.22;84.10
71254;HTU21D;59019;47.638;18.966;2023-02-28T02:57:15;-0.19;84.06
71254;HTU21D;59019;47.638;18.966;2023-02-28T02:59:43;-0.17;84.03
71254;HTU21D;59019;47.638;18.966;2023-02-28T03:02:12;-0.14;83.50
71254;HTU21D;59019;47.638;18.966;2023-02-28T03:04:45;-0.12;82.94
71254;HTU21D;59019;47.638;18.966;2023-02-28T03:07:11;-0.15;82.09
71254;HTU21D;59019;47.638;18.966;2023-02-28T03:09:37;-0.12;81.68
71254;HTU21D;59019;47.638;18.966;2023-02-28T03:12:04;-0.11;81.35
71254;HTU21D;59019;47.638;18.966;2023-02-28T03:23:21;0.04;77.08
71254;HTU21D;59019;47.638;18.966;2023-02-28T03:26:07;0.04;76.76
71254;HTU21D;59019;47.638;18.966;2023-02-28T03:34:03;0.15;74.88
71254;HTU21D;59019;47.638;18.966;2023-02-28T03:36:33;0.16;77.27
71254;HTU21D;59019;47.638;18.966;2023-02-28T03:39:07;0.22;78.47
71254;HTU21D;59019;47.638;18.966;2023-02-28T03:41:42;0.25;80.81
71254;HTU21D;59019;47.638;18.966;2023-02-28T03:44:48;0.29;80.47
71254;HTU21D;59019;47.638;18.966;2023-02-28T03:47:36;0.32;78.18
71254;HTU21D;59019;47.638;18.966;2023-02-28T03:50:36;0.43;77.85
71254;HTU21D;59019;47.638;18.966;2023-02-28T03:53:14;0.52;76.45
71254;HTU21D;59019;47.638;18.966;2023-02-28T03:58:37;0.55;74.66
71254;HTU21D;59019;47.638;18.966;2023-02-28T04:01:07;0.60;74.92
71254;HTU21D;59019;47.638;18.966;2023-02-28T04:03:36;0.64;74.67
71254;HTU21D;59019;47.638;18.966;2023-02-28T04:06:03;0.60;73.90
71254;HTU21D;59019;47.638;18.966;2023-02-28T04:08:29;0.62;73.64
71254;HTU21D;59019;47.638;18.966;2023-02-28T04:11:08;0.65;72.80
71254;HTU21D;59019;47.638;18.966;2023-02-28T04:13:38;0.65;72.56
71254;HTU21D;59019;47.638;18.966;2023-02-28T04:16:07;0.65;73.15
71254;HTU21D;59019;47.638;18.966;2023-02-28T04:18:37;0.67;72.81
71254;HTU21D;59019;47.638;18.966;2023-02-28T04:21:03;0.69;72.13
71254;HTU21D;59019;47.638;18.966;2023-02-28T04:23:30;0.71;71.57
71254;HTU21D;59019;47.638;18.966;2023-02-28T04:25:56;0.66;71.04
71254;HTU21D;59019;47.638;18.966;2023-02-28T04:28:21;0.62;70.70
71254;HTU21D;59019;47.638;18.966;2023-02-28T04:30:47;0.58;70.59
71254;HTU21D;59019;47.638;18.966;2023-02-28T04:33:13;0.53;70.51
71254;HTU21D;59019;47.638;18.966;2023-02-28T04:35:38;0.61;70.64
71254;HTU21D;59019;47.638;18.966;2023-02-28T04:38:04;0.60;70.03
71254;HTU21D;59019;47.638;18.966;2023-02-28T04:40:29;0.63;69.81
71254;HTU21D;59019;47.638;18.966;2023-02-28T04:42:55;0.64;69.82
71254;HTU21D;59019;47.638;18.966;2023-02-28T04:45:20;0.57;69.76
71254;HTU21D;59019;47.638;18.966;2023-02-28T04:47:46;0.55;70.03
71254;HTU21D;59019;47.638;18.966;2023-02-28T04:50:11;0.55;71.74
71254;HTU21D;59019;47.638;18.966;2023-02-28T04:52:37;0.57;74.53
71254;HTU21D;59019;47.638;18.966;2023-02-28T04:55:02;0.59;72.25
71254;HTU21D;59019;47.638;18.966;2023-02-28T04:57:28;0.73;75.18
71254;HTU21D;59019;47.638;18.966;2023-02-28T04:59:55;0.80;75.67
71254;HTU21D;59019;47.638;18.966;2023-02-28T05:02:20;0.81;73.80
71254;HTU21D;59019;47.638;18.966;2023-02-28T05:04:46;0.91;71.49
71254;HTU21D;59019;47.638;18.966;2023-02-28T05:07:11;0.89;69.97
71254;HTU21D;59019;47.638;18.966;2023-02-28T05:09:37;0.91;69.60
71254;HTU21D;59019;47.638;18.966;2023-02-28T05:12:03;0.81;69.09
71254;HTU21D;59019;47.638;18.966;2023-02-28T05:14:28;0.83;68.65
71254;HTU21D;59019;47.638;18.966;2023-02-28T05:16:53;0.84;68.84
71254;HTU21D;59019;47.638;18.966;2023-02-28T05:19:19;0.87;68.97
71254;HTU21D;59019;47.638;18.966;2023-02-28T05:21:51;0.81;68.84
71254;HTU21D;59019;47.638;18.966;2023-02-28T05:24:18;0.87;69.04
71254;HTU21D;59019;47.638;18.966;2023-02-28T05:26:50;0.84;68.80
71254;HTU21D;59019;47.638;18.966;2023-02-28T05:29:17;0.83;68.68
71254;HTU21D;59019;47.638;18.966;2023-02-28T05:31:42;0.88;68.78
71254;HTU21D;59019;47.638;18.966;2023-02-28T05:34:08;0.87;68.66
71254;HTU21D;59019;47.638;18.966;2023-02-28T05:36:36;0.87;68.70
71254;HTU21D;59019;47.638;18.966;2023-02-28T05:39:02;0.78;68.10
71254;HTU21D;59019;47.638;18.966;2023-02-28T05:41:28;0.79;68.34
71254;HTU21D;59019;47.638;18.966;2023-02-28T05:43:54;0.79;68.36
71254;HTU21D;59019;47.638;18.966;2023-02-28T05:46:19;0.79;68.55
71254;HTU21D;59019;47.638;18.966;2023-02-28T05:48:47;0.87;68.84
71254;HTU21D;59019;47.638;18.966;2023-02-28T05:51:13;0.94;69.42
71254;HTU21D;59019;47.638;18.966;2023-02-28T05:53:38;0.96;70.72
71254;HTU21D;59019;47.638;18.966;2023-02-28T05:56:04;1.04;71.80
71254;HTU21D;59019;47.638;18.966;2023-02-28T05:58:31;1.09;72.25
71254;HTU21D;59019;47.638;18.966;2023-02-28T06:00:58;1.13;72.72
71254;HTU21D;59019;47.638;18.966;2023-02-28T06:03:23;1.14;73.21
71254;HTU21D;59019;47.638;18.966;2023-02-28T06:05:49;1.18;73.54
71254;HTU21D;59019;47.638;18.966;2023-02-28T06:08:15;1.24;73.87
71254;HTU21D;59019;47.638;18.966;2023-02-28T06:10:41;1.23;73.73
71254;HTU21D;59019;47.638;18.966;2023-02-28T06:13:06;1.27;74.64
71254;HTU21D;59019;47.638;18.966;2023-02-28T06:15:32;1.29;76.44
71254;HTU21D;59019;47.638;18.966;2023-02-28T06:17:58;1.36;77.34
71254;HTU21D;59019;47.638;18.966;2023-02-28T06:20:25;1.43;77.50
71254;HTU21D;59019;47.638;18.966;2023-02-28T06:22:57;1.56;77.76
71254;HTU21D;59019;47.638;18.966;2023-02-28T06:25:26;1.66;77.24
71254;HTU21D;59019;47.638;18.966;2023-02-28T06:27:53;1.78;76.43
71254;HTU21D;59019;47.638;18.966;2023-02-28T06:30:18;1.88;76.45
71254;HTU21D;59019;47.638;18.966;2023-02-28T06:32:52;1.73;74.01
71254;HTU21D;59019;47.638;18.966;2023-02-28T06:35:18;1.93;73.28
71254;HTU21D;59019;47.638;18.966;2023-02-28T06:37:43;2.01;72.33
71254;HTU21D;59019;47.638;18.966;2023-02-28T06:40:11;2.15;71.73
71254;HTU21D;59019;47.638;18.966;2023-02-28T06:42:38;2.24;71.24
71254;HTU21D;59019;47.638;18.966;2023-02-28T06:45:04;2.39;70.87
71254;HTU21D;59019;47.638;18.966;2023-02-28T06:47:35;2.51;70.24
71254;HTU21D;59019;47.638;18.966;2023-02-28T06:50:02;2.58;69.81
71254;HTU21D;59019;47.638;18.966;2023-02-28T06:52:27;2.67;69.39
71254;HTU21D;59019;47.638;18.966;2023-02-28T06:54:53;2.81;68.72
71254;HTU21D;59019;47.638;18.966;2023-02-28T06:57:27;2.95;67.70
71254;HTU21D;59019;47.638;18.966;2023-02-28T06:59:55;3.02;66.88
71254;HTU21D;59019;47.638;18.966;2023-02-28T07:02:21;3.11;66.41
71254;HTU21D;59019;47.638;18.966;2023-02-28T07:04:46;3.16;65.12
71254;HTU21D;59019;47.638;18.966;2023-02-28T07:07:13;3.29;64.99
71254;HTU21D;59019;47.638;18.966;2023-02-28T07:09:39;3.38;64.36
71254;HTU21D;59019;47.638;18.966;2023-02-28T07:12:04;3.43;63.98
71254;HTU21D;59019;47.638;18.966;2023-02-28T07:14:30;3.56;64.20
71254;HTU21D;59019;47.638;18.966;2023-02-28T07:16:55;3.63;64.18
71254;HTU21D;59019;47.638;18.966;2023-02-28T07:19:21;3.72;63.56
71254;HTU21D;59019;47.638;18.966;2023-02-28T07:21:46;3.80;64.74
71254;HTU21D;59019;47.638;18.966;2023-02-28T07:24:12;3.90;65.07
71254;HTU21D;59019;47.638;18.966;2023-02-28T07:26:40;3.91;64.59
71254;HTU21D;59019;47.638;18.966;2023-02-28T07:29:06;3.97;64.15
71254;HTU21D;59019;47.638;18.966;2023-02-28T07:31:32;4.08;65.50
71254;HTU21D;59019;47.638;18.966;2023-02-28T07:33:57;4.28;63.63
71254;HTU21D;59019;47.638;18.966;2023-02-28T07:36:23;4.42;62.12
71254;HTU21D;59019;47.638;18.966;2023-02-28T07:38:49;4.53;60.09
71254;HTU21D;59019;47.638;18.966;2023-02-28T07:41:21;4.56;59.19
71254;HTU21D;59019;47.638;18.966;2023-02-28T07:43:47;4.71;60.14
71254;HTU21D;59019;47.638;18.966;2023-02-28T07:46:15;4.80;59.85
71254;HTU21D;59019;47.638;18.966;2023-02-28T07:48:41;4.64;59.30
71254;HTU21D;59019;47.638;18.966;2023-02-28T07:51:07;4.43;59.13
71254;HTU21D;59019;47.638;18.966;2023-02-28T07:53:33;4.56;59.55
71254;HTU21D;59019;47.638;18.966;2023-02-28T07:56:00;4.23;59.33
71254;HTU21D;59019;47.638;18.966;2023-02-28T07:58:27;4.41;60.22
71254;HTU21D;59019;47.638;18.966;2023-02-28T08:00:53;4.52;60.47
71254;HTU21D;59019;47.638;18.966;2023-02-28T08:03:19;4.73;60.64
71254;HTU21D;59019;47.638;18.966;2023-02-28T08:05:45;4.77;59.33
71254;HTU21D;59019;47.638;18.966;2023-02-28T08:08:11;4.71;58.22
71254;HTU21D;59019;47.638;18.966;2023-02-28T08:10:37;4.87;58.47
71254;HTU21D;59019;47.638;18.966;2023-02-28T08:13:03;4.92;58.55
71254;HTU21D;59019;47.638;18.966;2023-02-28T08:15:29;4.84;58.40
71254;HTU21D;59019;47.638;18.966;2023-02-28T08:17:54;4.49;58.13
71254;HTU21D;59019;47.638;18.966;2023-02-28T08:20:22;4.73;58.38
71254;HTU21D;59019;47.638;18.966;2023-02-28T08:22:48;4.93;57.93
71254;HTU21D;59019;47.638;18.966;2023-02-28T08:25:14;4.31;58.00
71254;HTU21D;59019;47.638;18.966;2023-02-28T08:27:39;4.72;60.78
71254;HTU21D;59019;47.638;18.966;2023-02-28T08:30:05;5.16;60.37
71254;HTU21D;59019;47.638;18.966;2023-02-28T08:32:33;5.56;59.46
71254;HTU21D;59019;47.638;18.966;2023-02-28T08:34:59;5.77;58.50
71254;HTU21D;59019;47.638;18.966;2023-02-28T08:37:24;6.19;57.61
71254;HTU21D;59019;47.638;18.966;2023-02-28T08:39:50;6.66;57.07
71254;HTU21D;59019;47.638;18.966;2023-02-28T08:42:16;6.94;55.23
71254;HTU21D;59019;47.638;18.966;2023-02-28T08:44:41;7.09;53.55
71254;HTU21D;59019;47.638;18.966;2023-02-28T08:47:07;7.12;52.52
71254;HTU21D;59019;47.638;18.966;2023-02-28T08:49:33;7.11;52.14
71254;HTU21D;59019;47.638;18.966;2023-02-28T08:51:58;7.25;52.82
71254;HTU21D;59019;47.638;18.966;2023-02-28T08:54:24;7.23;52.21
71254;HTU21D;59019;47.638;18.966;2023-02-28T08:56:50;6.93;52.83
71254;HTU21D;59019;47.638;18.966;2023-02-28T08:59:17;6.99;52.85
71254;HTU21D;59019;47.638;18.966;2023-02-28T09:01:42;7.08;53.01
71254;HTU21D;59019;47.638;18.966;2023-02-28T09:04:09;7.11;53.17
71254;HTU21D;59019;47.638;18.966;2023-02-28T09:06:36;7.19;53.12
71254;HTU21D;59019;47.638;18.966;2023-02-28T09:09:02;7.12;53.19
71254;HTU21D;59019;47.638;18.966;2023-02-28T09:11:31;7.09;52.36
71254;HTU21D;59019;47.638;18.966;2023-02-28T09:13:57;6.52;53.56
71254;HTU21D;59019;47.638;18.966;2023-02-28T09:16:24;7.05;53.98
71254;HTU21D;59019;47.638;18.966;2023-02-28T09:18:50;7.20;53.12
71254;HTU21D;59019;47.638;18.966;2023-02-28T09:21:17;7.34;52.75
71254;HTU21D;59019;47.638;18.966;2023-02-28T09:23:44;7.13;52.19
71254;HTU21D;59019;47.638;18.966;2023-02-28T09:26:24;6.69;53.46
71254;HTU21D;59019;47.638;18.966;2023-02-28T09:28:50;7.11;53.00
71254;HTU21D;59019;47.638;18.966;2023-02-28T09:31:20;7.33;52.66
71254;HTU21D;59019;47.638;18.966;2023-02-28T09:33:51;7.74;52.27
71254;HTU21D;59019;47.638;18.966;2023-02-28T09:36:17;8.18;51.94
71254;HTU21D;59019;47.638;18.966;2023-02-28T09:38:43;8.49;51.66
71254;HTU21D;59019;47.638;18.966;2023-02-28T09:41:26;8.04;49.50
71254;HTU21D;59019;47.638;18.966;2023-02-28T09:43:59;8.26;50.50
71254;HTU21D;59019;47.638;18.966;2023-02-28T09:46:31;8.72;50.42
71254;HTU21D;59019;47.638;18.966;2023-02-28T09:49:00;9.01;50.04
71254;HTU21D;59019;47.638;18.966;2023-02-28T09:51:33;9.21;48.73
71254;HTU21D;59019;47.638;18.966;2023-02-28T09:53:59;9.45;49.32
71254;HTU21D;59019;47.638;18.966;2023-02-28T09:56:36;9.93;48.51
71254;HTU21D;59019;47.638;18.966;2023-02-28T10:01:57;8.44;47.98
71254;HTU21D;59019;47.638;18.966;2023-02-28T10:04:57;9.40;49.08
71254;HTU21D;59019;47.638;18.966;2023-02-28T10:12:45;10.06;47.93
71254;HTU21D;59019;47.638;18.966;2023-02-28T10:15:16;10.31;46.78
71254;HTU21D;59019;47.638;18.966;2023-02-28T10:17:46;10.42;46.33
71254;HTU21D;59019;47.638;18.966;2023-02-28T10:20:19;10.12;46.57
71254;HTU21D;59019;47.638;18.966;2023-02-28T10:25:25;10.20;47.02
71254;HTU21D;59019;47.638;18.966;2023-02-28T10:28:10;10.34;46.59
71254;HTU21D;59019;47.638;18.966;2023-02-28T10:30:55;10.24;47.10
71254;HTU21D;59019;47.638;18.966;2023-02-28T10:33:25;10.42;46.71
71254;HTU21D;59019;47.638;18.966;2023-02-28T10:35:52;9.77;46.30
71254;HTU21D;59019;47.638;18.966;2023-02-28T10:38:24;9.59;46.78
71254;HTU21D;59019;47.638;18.966;2023-02-28T10:40:51;9.65;47.27
71254;HTU21D;59019;47.638;18.966;2023-02-28T10:46:11;9.48;46.93
71254;HTU21D;59019;47.638;18.966;2023-02-28T10:48:45;9.39;48.38
71254;HTU21D;59019;47.638;18.966;2023-02-28T10:51:13;9.15;47.89
71254;HTU21D;59019;47.638;18.966;2023-02-28T10:53:48;8.98;48.81
71254;HTU21D;59019;47.638;18.966;2023-02-28T10:56:20;8.80;47.95
71254;HTU21D;59019;47.638;18.966;2023-02-28T11:01:43;9.04;48.47
71254;HTU21D;59019;47.638;18.966;2023-02-28T11:04:23;9.41;48.70
71254;HTU21D;59019;47.638;18.966;2023-02-28T11:07:27;8.70;48.17
71254;HTU21D;59019;47.638;18.966;2023-02-28T11:09:55;8.67;49.28
71254;HTU21D;59019;47.638;18.966;2023-02-28T11:12:39;8.71;49.76
71254;HTU21D;59019;47.638;18.966;2023-02-28T11:15:21;8.62;50.52
71254;HTU21D;59019;47.638;18.966;2023-02-28T11:17:57;8.66;50.96
71254;HTU21D;59019;47.638;18.966;2023-02-28T11:20:27;8.52;51.30
71254;HTU21D;59019;47.638;18.966;2023-02-28T11:22:54;8.65;51.85
71254;HTU21D;59019;47.638;18.966;2023-02-28T11:25:21;8.57;52.24
71254;HTU21D;59019;47.638;18.966;2023-02-28T11:28:00;8.58;53.14
71254;HTU21D;59019;47.638;18.966;2023-02-28T11:30:31;8.82;53.02
71254;HTU21D;59019;47.638;18.966;2023-02-28T11:33:00;9.01;53.46
71254;HTU21D;59019;47.638;18.966;2023-02-28T11:35:36;9.14;52.82
71254;HTU21D;59019;47.638;18.966;2023-02-28T11:38:07;8.67;53.17
71254;HTU21D;59019;47.638;18.966;2023-02-28T11:46:44;8.97;53.47
71254;HTU21D;59019;47.638;18.966;2023-02-28T11:49:35;9.46;53.00
71254;HTU21D;59019;47.638;18.966;2023-02-28T12:27:40;9.07;53.87
71254;HTU21D;59019;47.638;18.966;2023-02-28T12:30:28;9.72;53.05
71254;HTU21D;59019;47.638;18.966;2023-02-28T12:33:09;10.10;52.98
71254;HTU21D;59019;47.638;18.966;2023-02-28T12:35:52;10.77;52.00
71254;HTU21D;59019;47.638;18.966;2023-02-28T12:46:50;10.34;50.30
71254;HTU21D;59019;47.638;18.966;2023-02-28T12:49:25;9.88;50.72
71254;HTU21D;59019;47.638;18.966;2023-02-28T12:51:53;9.45;51.51
71254;HTU21D;59019;47.638;18.966;2023-02-28T12:59:49;9.05;53.65
71254;HTU21D;59019;47.638;18.966;2023-02-28T13:10:45;10.21;51.75
71254;HTU21D;59019;47.638;18.966;2023-02-28T13:13:16;10.14;51.05
71254;HTU21D;59019;47.638;18.966;2023-02-28T13:16:06;10.42;51.04
71254;HTU21D;59019;47.638;18.966;2023-02-28T13:18:37;10.41;51.15
71254;HTU21D;59019;47.638;18.966;2023-02-28T13:21:07;10.37;49.90
71254;HTU21D;59019;47.638;18.966;2023-02-28T13:23:59;10.50;50.59
71254;HTU21D;59019;47.638;18.966;2023-02-28T13:34:37;9.12;52.67
71254;HTU21D;59019;47.638;18.966;2023-02-28T13:39:57;9.00;53.18
71254;HTU21D;59019;47.638;18.966;2023-02-28T13:47:54;8.37;54.87
71254;HTU21D;59019;47.638;18.966;2023-02-28T13:56:03;8.17;54.74
71254;HTU21D;59019;47.638;18.966;2023-02-28T13:58:42;8.33;55.37
71254;HTU21D;59019;47.638;18.966;2023-02-28T14:06:22;8.09;55.60
71254;HTU21D;59019;47.638;18.966;2023-02-28T14:09:17;8.04;55.29
71254;HTU21D;59019;47.638;18.966;2023-02-28T14:11:44;8.27;55.65
71254;HTU21D;59019;47.638;18.966;2023-02-28T14:17:07;7.86;56.13
71254;HTU21D;59019;47.638;18.966;2023-02-28T14:19:36;8.00;56.42
71254;HTU21D;59019;47.638;18.966;2023-02-28T14:36:25;7.47;59.70
71254;HTU21D;59019;47.638;18.966;2023-02-28T14:39:01;7.67;58.66
71254;HTU21D;59019;47.638;18.966;2023-02-28T14:41:36;7.60;58.56
71254;HTU21D;59019;47.638;18.966;2023-02-28T14:44:26;7.91;58.17
71254;HTU21D;59019;47.638;18.966;2023-02-28T14:46:54;7.54;57.62
71254;HTU21D;59019;47.638;18.966;2023-02-28T14:49:26;7.57;58.16
71254;HTU21D;59019;47.638;18.966;2023-02-28T14:52:22;7.69;57.55
71254;HTU21D;59019;47.638;18.966;2023-02-28T14:55:00;7.46;57.29
71254;HTU21D;59019;47.638;18.966;2023-02-28T14:57:32;7.19;58.04
71254;HTU21D;59019;47.638;18.966;2023-02-28T15:00:03;7.40;58.17
71254;HTU21D;59019;47.638;18.966;2023-02-28T15:02:37;7.12;58.65
71254;HTU21D;59019;47.638;18.966;2023-02-28T15:07:47;7.27;58.82
71254;HTU21D;59019;47.638;18.966;2023-02-28T15:12:47;7.24;58.77
71254;HTU21D;59019;47.638;18.966;2023-02-28T15:15:18;7.15;59.46
71254;HTU21D;59019;47.638;18.966;2023-02-28T15:17:50;7.20;59.32
71254;HTU21D;59019;47.638;18.966;2023-02-28T15:20:18;7.24;58.99
71254;HTU21D;59019;47.638;18.966;2023-02-28T15:22:46;6.87;59.55
71254;HTU21D;59019;47.638;18.966;2023-02-28T15:25:15;7.04;59.65
71254;HTU21D;59019;47.638;18.966;2023-02-28T15:27:47;6.84;59.87
71254;HTU21D;59019;47.638;18.966;2023-02-28T15:30:20;6.68;60.23
71254;HTU21D;59019;47.638;18.966;2023-02-28T15:33:24;6.79;60.37
71254;HTU21D;59019;47.638;18.966;2023-02-28T15:35:47;6.86;60.52
71254;HTU21D;59019;47.638;18.966;2023-02-28T15:40:43;6.60;60.65
71254;HTU21D;59019;47.638;18.966;2023-02-28T15:43:29;6.59;61.14
71254;HTU21D;59019;47.638;18.966;2023-02-28T15:48:28;6.45;63.78
71254;HTU21D;59019;47.638;18.966;2023-02-28T15:50:57;6.42;63.02
71254;HTU21D;59019;47.638;18.966;2023-02-28T15:53:31;6.19;63.24
71254;HTU21D;59019;47.638;18.966;2023-02-28T15:56:03;6.30;64.01
71254;HTU21D;59019;47.638;18.966;2023-02-28T15:58:29;6.22;62.50
71254;HTU21D;59019;47.638;18.966;2023-02-28T16:01:07;6.27;62.23
71254;HTU21D;59019;47.638;18.966;2023-02-28T16:03:48;6.19;62.32
71254;HTU21D;59019;47.638;18.966;2023-02-28T16:06:38;5.99;62.83
71254;HTU21D;59019;47.638;18.966;2023-02-28T16:09:15;5.99;63.23
71254;HTU21D;59019;47.638;18.966;2023-02-28T16:11:49;6.06;63.09
71254;HTU21D;59019;47.638;18.966;2023-02-28T16:14:20;6.08;63.35
71254;HTU21D;59019;47.638;18.966;2023-02-28T16:16:50;5.98;63.16
71254;HTU21D;59019;47.638;18.966;2023-02-28T16:19:17;6.00;63.21
71254;HTU21D;59019;47.638;18.966;2023-02-28T16:21:43;5.97;63.30
71254;HTU21D;59019;47.638;18.966;2023-02-28T16:24:09;5.94;63.64
71254;HTU21D;59019;47.638;18.966;2023-02-28T16:26:34;5.63;63.92
71254;HTU21D;59019;47.638;18.966;2023-02-28T16:29:02;5.55;64.27
71254;HTU21D;59019;47.638;18.966;2023-02-28T16:31:28;5.64;64.56
71254;HTU21D;59019;47.638;18.966;2023-02-28T16:33:54;5.74;64.27
71254;HTU21D;59019;47.638;18.966;2023-02-28T16:36:22;5.74;64.34
71254;HTU21D;59019;47.638;18.966;2023-02-28T16:38:50;5.75;64.98
71254;HTU21D;59019;47.638;18.966;2023-02-28T16:41:21;5.70;64.63
71254;HTU21D;59019;47.638;18.966;2023-02-28T16:43:49;5.64;65.01
71254;HTU21D;59019;47.638;18.966;2023-02-28T16:46:16;5.70;64.68
71254;HTU21D;59019;47.638;18.966;2023-02-28T16:48:43;5.63;65.24
71254;HTU21D;59019;47.638;18.966;2023-02-28T16:51:13;5.62;66.56
71254;HTU21D;59019;47.638;18.966;2023-02-28T16:53:38;5.64;66.36
71254;HTU21D;59019;47.638;18.966;2023-02-28T16:56:04;5.53;66.68
71254;HTU21D;59019;47.638;18.966;2023-02-28T16:58:32;5.52;66.63
71254;HTU21D;59019;47.638;18.966;2023-02-28T17:01:01;5.50;66.21
71254;HTU21D;59019;47.638;18.966;2023-02-28T17:03:27;5.42;66.45
71254;HTU21D;59019;47.638;18.966;2023-02-28T17:05:53;5.45;66.65
71254;HTU21D;59019;47.638;18.966;2023-02-28T17:08:19;5.43;66.91
71254;HTU21D;59019;47.638;18.966;2023-02-28T17:10:45;5.40;66.81
71254;HTU21D;59019;47.638;18.966;2023-02-28T17:13:11;5.39;66.98
71254;HTU21D;59019;47.638;18.966;2023-02-28T17:15:37;5.38;66.98
71254;HTU21D;59019;47.638;18.966;2023-02-28T17:18:03;5.38;67.08
71254;HTU21D;59019;47.638;18.966;2023-02-28T17:20:29;5.37;67.36
71254;HTU21D;59019;47.638;18.966;2023-02-28T17:22:55;5.36;67.54
71254;HTU21D;59019;47.638;18.966;2023-02-28T17:25:22;5.30;68.10
71254;HTU21D;59019;47.638;18.966;2023-02-28T17:27:48;5.22;68.16
71254;HTU21D;59019;47.638;18.966;2023-02-28T17:30:20;5.18;68.23
71254;HTU21D;59019;47.638;18.966;2023-02-28T17:32:46;5.20;68.41
71254;HTU21D;59019;47.638;18.966;2023-02-28T17:35:12;5.22;68.49
71254;HTU21D;59019;47.638;18.966;2023-02-28T17:37:37;5.24;68.79
71254;HTU21D;59019;47.638;18.966;2023-02-28T17:40:04;5.21;69.41
71254;HTU21D;59019;47.638;18.966;2023-02-28T17:42:30;5.17;69.59
71254;HTU21D;59019;47.638;18.966;2023-02-28T17:44:56;5.21;70.01
71254;HTU21D;59019;47.638;18.966;2023-02-28T17:47:21;5.17;70.37
71254;HTU21D;59019;47.638;18.966;2023-02-28T17:49:47;5.18;70.39
71254;HTU21D;59019;47.638;18.966;2023-02-28T17:52:13;5.17;70.55
71254;HTU21D;59019;47.638;18.966;2023-02-28T17:54:38;5.19;70.37
71254;HTU21D;59019;47.638;18.966;2023-02-28T17:57:04;5.19;70.07
71254;HTU21D;59019;47.638;18.966;2023-02-28T17:59:29;5.17;70.58
71254;HTU21D;59019;47.638;18.966;2023-02-28T18:02:01;5.12;71.21
71254;HTU21D;59019;47.638;18.966;2023-02-28T18:04:27;5.09;71.37
71254;HTU21D;59019;47.638;18.966;2023-02-28T18:06:53;5.07;71.53
71254;HTU21D;59019;47.638;18.966;2023-02-28T18:09:20;5.04;72.05
71254;HTU21D;59019;47.638;18.966;2023-02-28T18:11:50;5.05;72.27
71254;HTU21D;59019;47.638;18.966;2023-02-28T18:14:18;5.04;74.74
71254;HTU21D;59019;47.638;18.966;2023-02-28T18:16:44;4.98;77.12
71254;HTU21D;59019;47.638;18.966;2023-02-28T18:19:11;5.05;76.70